KRWI/RWI METAR and TAF weather

Enter ICAO airport designator
Station Type Date Time Source
KRWI METAR 2021/05/14 22:53 UTC NOAA

KRWI 142253Z AUTO 36011KT 10SM FEW110 22/01 A3022 RMK AO2 SLP231 T02170006


Station Type Date Time Source
KRWI Decoded METAR 2021/05/14 22:53 UTC NOAA

ROCKY MOUNT-WILSON AIRPORT, NC, United States (KRWI) 35-51N 077-54W 47M
May 14, 2021 - 06:53 PM EDT / 2021.05.14 2253 UTC
Wind: from the N (360 degrees) at 13 MPH (11 KT):0
Visibility: 10 mile(s):0
Sky conditions: mostly clear
Temperature: 71.1 F (21.7 C)
Dew Point: 33.1 F (0.6 C)
Relative Humidity: 24%
Pressure (altimeter): 30.22 in. Hg (1023 hPa)
ob: KRWI 142253Z AUTO 36011KT 10SM FEW110 22/01 A3022 RMK AO2 SLP231 T02170006
cycle: 23

Station Type Date Time Source
KRWI TAF 2021/05/14 18:21 UTC NOAA

TAF KRWI 141720Z 1418/1518 VRB05KT P6SM SCT070 SCT100
FM150600 VRB03KT P6SM FEW060 FEW250

Example: see airport list